createdAt,value
2022-12-08T00:00:33.694Z,98609.95
2022-12-08T00:05:59.130Z,98614.50
2022-12-08T00:11:07.289Z,98626.48
2022-12-08T00:16:15.649Z,98637.45
2022-12-08T00:21:22.932Z,98647.55
2022-12-08T00:26:30.704Z,98650.39
2022-12-08T00:31:38.964Z,98650.74
2022-12-08T00:36:47.329Z,98648.19
2022-12-08T00:42:13.657Z,98656.43
2022-12-08T00:47:24.802Z,98664.16
2022-12-08T00:52:33.499Z,98669.88
2022-12-08T00:57:41.979Z,98679.36
2022-12-08T01:02:50.229Z,98680.26
2022-12-08T01:07:58.224Z,98688.23
2022-12-08T01:13:05.375Z,98689.60
2022-12-08T01:18:13.328Z,98700.36
2022-12-08T01:23:21.313Z,98697.23
2022-12-08T01:28:29.271Z,98690.63
2022-12-08T01:33:36.535Z,98694.73
2022-12-08T01:38:44.465Z,98693.84
2022-12-08T01:44:02.963Z,98697.08
2022-12-08T01:49:15.028Z,98700.14
2022-12-08T01:54:25.300Z,98704.38
2022-12-08T01:59:35.530Z,98705.23
2022-12-08T02:04:43.650Z,98708.84
2022-12-08T02:09:52.957Z,98718.70
2022-12-08T02:15:04.983Z,98718.48
2022-12-08T02:20:37.435Z,98724.09
2022-12-08T02:26:09.603Z,98726.80
2022-12-08T02:31:30.597Z,98738.35
2022-12-08T02:36:46.006Z,98739.17
2022-12-08T02:42:04.046Z,98740.52
2022-12-08T02:47:15.937Z,98744.33
2022-12-08T02:52:47.033Z,98738.23
2022-12-08T02:58:29.989Z,98738.05
2022-12-08T03:03:48.980Z,98738.86
2022-12-08T03:09:01.820Z,98738.17
2022-12-08T03:14:13.313Z,98750.13
2022-12-08T03:19:25.105Z,98752.77
2022-12-08T03:24:36.110Z,98762.88
2022-12-08T03:29:44.482Z,98769.52
2022-12-08T03:34:55.105Z,98773.73
2022-12-08T03:40:03.536Z,98783.48
2022-12-08T03:45:12.891Z,98792.70
2022-12-08T03:50:21.121Z,98795.18
2022-12-08T03:55:29.129Z,98804.58
2022-12-08T04:00:37.231Z,98812.56
2022-12-08T04:05:45.547Z,98818.30
2022-12-08T04:10:53.509Z,98821.79
2022-12-08T04:16:00.681Z,98825.27
2022-12-08T04:21:09.431Z,98826.30
2022-12-08T04:26:18.585Z,98830.63
2022-12-08T04:31:26.769Z,98834.42
2022-12-08T04:36:34.805Z,98840.17
2022-12-08T04:41:42.866Z,98849.91
2022-12-08T04:46:50.933Z,98855.38
2022-12-08T04:51:59.504Z,98856.14
2022-12-08T04:57:07.638Z,98854.14
2022-12-08T05:02:15.813Z,98862.17
2022-12-08T05:07:24.269Z,98869.52
2022-12-08T05:12:32.237Z,98877.38
2022-12-08T05:17:40.270Z,98889.70
2022-12-08T05:22:48.261Z,98894.23
2022-12-08T05:28:17.586Z,98896.63
2022-12-08T05:33:24.910Z,98899.89
2022-12-08T05:38:32.967Z,98904.21
2022-12-08T05:43:41.080Z,98912.13
2022-12-08T05:48:48.754Z,98911.59
2022-12-08T05:53:57.953Z,98915.88
2022-12-08T05:59:09.039Z,98921.73
2022-12-08T06:04:17.102Z,98925.02
2022-12-08T06:09:25.567Z,98924.77
2022-12-08T06:14:34.217Z,98933.23
2022-12-08T06:19:42.278Z,98946.02
2022-12-08T06:24:50.351Z,98951.53
2022-12-08T06:29:58.524Z,98957.58
2022-12-08T06:35:07.259Z,98963.29
2022-12-08T06:40:17.185Z,98970.89
2022-12-08T06:45:25.446Z,98972.73
2022-12-08T06:50:35.442Z,98977.20
2022-12-08T06:56:02.049Z,98984.12
2022-12-08T07:01:12.710Z,98993.64
2022-12-08T07:06:24.179Z,99000.02
2022-12-08T07:11:32.663Z,99001.38
2022-12-08T07:16:40.857Z,99004.64
2022-12-08T07:21:48.897Z,99004.08
2022-12-08T07:26:56.967Z,99007.16
2022-12-08T07:32:05.025Z,99013.20
2022-12-08T07:37:13.136Z,99021.84
2022-12-08T07:42:20.345Z,99026.27
2022-12-08T07:47:28.412Z,99039.77
2022-12-08T07:52:37.535Z,99051.02
2022-12-08T07:57:45.513Z,99057.75
2022-12-08T08:02:53.644Z,99061.88
2022-12-08T08:08:01.908Z,99066.86
2022-12-08T08:13:10.295Z,99072.73
2022-12-08T08:18:18.831Z,99079.26
2022-12-08T08:23:26.857Z,99086.47
2022-12-08T08:28:35.640Z,99090.04
2022-12-08T08:33:43.707Z,99092.76
2022-12-08T08:38:51.977Z,99094.28
2022-12-08T08:44:00.110Z,99097.56
2022-12-08T08:49:07.335Z,99100.69
2022-12-08T08:54:15.568Z,99107.27
2022-12-08T08:59:23.689Z,99114.90
2022-12-08T09:04:32.204Z,99121.16
2022-12-08T09:09:41.658Z,99125.52
2022-12-08T09:14:49.971Z,99126.92
2022-12-08T09:19:58.665Z,99130.11
2022-12-08T09:25:07.472Z,99130.86
2022-12-08T09:30:15.719Z,99130.41
2022-12-08T09:35:23.832Z,99128.74
2022-12-08T09:40:35.232Z,99130.20
2022-12-08T09:45:43.613Z,99129.38
2022-12-08T09:50:56.479Z,99132.35
2022-12-08T09:56:08.657Z,99139.22
2022-12-08T10:01:18.450Z,99136.41
2022-12-08T10:06:33.548Z,99134.83
2022-12-08T10:11:54.516Z,99138.81
2022-12-08T10:17:08.282Z,99144.59
2022-12-08T10:22:25.251Z,99140.33
2022-12-08T10:27:36.664Z,99144.17
2022-12-08T10:32:48.621Z,99142.30
2022-12-08T10:38:06.875Z,99141.46
2022-12-08T10:43:20.164Z,99142.77
2022-12-08T10:48:31.662Z,99141.15
2022-12-08T10:53:48.896Z,99140.74
2022-12-08T10:59:15.181Z,99141.58
2022-12-08T11:04:26.225Z,99137.53
2022-12-08T11:09:47.161Z,99135.87
2022-12-08T11:15:02.777Z,99135.73
2022-12-08T11:20:24.897Z,99134.46
2022-12-08T11:25:32.989Z,99138.39
2022-12-08T11:30:45.652Z,99137.65
2022-12-08T11:35:57.442Z,99138.23
2022-12-08T11:41:15.726Z,99136.06
2022-12-08T11:46:29.961Z,99129.04
2022-12-08T11:51:41.343Z,99132.04
2022-12-08T11:56:53.331Z,99123.46
2022-12-08T12:02:01.633Z,99122.35
2022-12-08T12:07:46.156Z,99115.04
2022-12-08T12:13:07.037Z,99115.17
2022-12-08T12:18:21.010Z,99111.35
2022-12-08T12:23:38.818Z,99107.52
2022-12-08T12:28:52.734Z,99096.92
2022-12-08T12:34:10.578Z,99090.70
2022-12-08T12:39:20.664Z,99089.20
2022-12-08T12:44:41.019Z,99085.77
2022-12-08T12:50:11.153Z,99073.44
2022-12-08T12:55:53.755Z,99074.30
2022-12-08T13:01:31.689Z,99077.10
2022-12-08T13:06:43.709Z,99076.23
2022-12-08T13:11:57.175Z,99075.41
2022-12-08T13:17:07.176Z,99081.63
2022-12-08T13:22:49.073Z,99077.27
2022-12-08T13:28:10.979Z,99074.14
2022-12-08T13:33:24.697Z,99071.36
2022-12-08T13:38:37.491Z,99068.59
2022-12-08T13:44:20.584Z,99068.39
2022-12-08T13:56:05.386Z,99063.15
2022-12-08T14:00:28.031Z,99058.27
2022-12-08T14:11:34.462Z,99053.87
2022-12-08T14:16:44.201Z,99045.90
2022-12-08T14:21:56.169Z,99045.05
2022-12-08T14:27:07.246Z,99044.86
2022-12-08T14:32:31.953Z,99041.43
2022-12-08T14:37:44.064Z,99033.32
2022-12-08T14:42:55.839Z,99033.72
2022-12-08T14:48:22.608Z,99039.64
2022-12-08T14:53:40.004Z,99037.77
2022-12-08T14:58:49.360Z,99030.89
2022-12-08T15:04:05.286Z,99036.63
2022-12-08T15:09:33.089Z,99042.70
2022-12-08T15:14:42.868Z,99038.88
2022-12-08T15:20:00.828Z,99039.71
2022-12-08T15:25:14.221Z,99040.56
2022-12-08T15:30:22.622Z,99032.90
2022-12-08T15:35:34.672Z,99033.22
2022-12-08T15:40:46.114Z,99031.25
2022-12-08T15:45:59.389Z,99031.55
2022-12-08T15:51:08.207Z,99029.56
2022-12-08T15:56:27.289Z,99029.88
2022-12-08T16:01:36.201Z,99026.73
2022-12-08T16:13:26.935Z,99032.68
2022-12-08T16:18:05.595Z,99030.89
2022-12-08T16:23:34.603Z,99029.27
2022-12-08T16:28:54.136Z,99029.86
2022-12-08T16:34:03.940Z,99035.86
2022-12-08T16:39:14.573Z,99038.19
2022-12-08T16:44:23.617Z,99039.52
2022-12-08T16:49:30.687Z,99041.86
2022-12-08T16:54:39.561Z,99035.89
2022-12-08T16:59:48.139Z,99034.27
2022-12-08T17:04:56.945Z,99032.94
2022-12-08T17:10:07.141Z,99034.23
2022-12-08T17:15:20.904Z,99032.59
2022-12-08T17:20:30.642Z,99030.08
2022-12-08T17:25:38.219Z,99034.33
2022-12-08T17:30:47.221Z,99026.60
2022-12-08T17:35:57.177Z,99025.15
2022-12-08T17:41:08.684Z,99024.52
2022-12-08T17:46:21.019Z,99021.30
2022-12-08T17:51:27.454Z,99025.38
2022-12-08T17:56:36.294Z,99022.70
2022-12-08T18:01:43.637Z,99030.10
2022-12-08T18:06:52.009Z,99030.90
2022-12-08T18:12:00.025Z,99024.23
2022-12-08T18:17:08.809Z,99023.82
2022-12-08T18:22:17.075Z,99020.63
2022-12-08T18:27:25.215Z,99022.29
2022-12-08T18:32:34.099Z,99021.01
2022-12-08T18:37:43.612Z,99014.52
2022-12-08T18:42:53.162Z,99016.71
2022-12-08T18:48:01.450Z,99017.35
2022-12-08T18:53:09.791Z,99016.79
2022-12-08T18:58:18.243Z,99014.65
2022-12-08T19:03:26.716Z,99013.04
2022-12-08T19:08:35.651Z,99013.33
2022-12-08T19:13:44.531Z,99015.91
2022-12-08T19:18:53.380Z,99015.17
2022-12-08T19:24:01.927Z,99017.73
2022-12-08T19:29:10.683Z,99019.95
2022-12-08T19:34:19.431Z,99015.39
2022-12-08T19:39:46.039Z,99007.88
2022-12-08T19:44:54.639Z,99006.80
2022-12-08T19:50:20.964Z,98997.74
2022-12-08T19:55:29.636Z,98995.44
2022-12-08T20:00:40.986Z,98996.77
2022-12-08T20:05:52.981Z,98991.16
2022-12-08T20:11:01.759Z,98992.16
2022-12-08T20:16:10.696Z,98990.41
2022-12-08T20:21:19.772Z,98988.84
2022-12-08T20:26:28.363Z,98991.48
2022-12-08T20:31:36.823Z,98987.63
2022-12-08T20:36:45.190Z,98986.25
2022-12-08T20:41:54.924Z,98992.16
2022-12-08T20:47:03.500Z,98988.16
2022-12-08T20:52:12.357Z,98984.88
2022-12-08T20:57:20.484Z,98991.46
2022-12-08T21:02:28.771Z,98988.20
2022-12-08T21:07:38.142Z,98987.14
2022-12-08T21:12:46.663Z,98986.12
2022-12-08T21:17:55.277Z,98993.04
2022-12-08T21:23:04.317Z,98992.02
2022-12-08T21:28:13.614Z,98986.77
2022-12-08T21:33:22.435Z,98982.59
2022-12-08T21:38:31.028Z,98983.66
2022-12-08T21:43:39.763Z,98979.88
2022-12-08T21:48:48.271Z,98979.39
2022-12-08T21:53:56.690Z,98974.55
2022-12-08T21:59:06.193Z,98974.61
2022-12-08T22:04:18.464Z,98976.73
2022-12-08T22:09:27.106Z,98978.50
2022-12-08T22:14:35.325Z,98980.42
2022-12-08T22:19:43.381Z,98980.97
2022-12-08T22:24:51.588Z,98983.10
2022-12-08T22:29:59.883Z,98980.15
2022-12-08T22:35:08.716Z,98983.77
2022-12-08T22:40:17.533Z,98985.14
2022-12-08T22:45:25.938Z,98989.09
2022-12-08T22:50:34.287Z,98989.80
2022-12-08T22:55:47.001Z,98986.52
2022-12-08T23:00:55.342Z,98987.94
2022-12-08T23:06:03.926Z,98991.45
2022-12-08T23:11:12.200Z,98989.93
2022-12-08T23:16:20.472Z,98993.92
2022-12-08T23:21:29.852Z,98994.14
2022-12-08T23:26:38.132Z,99003.17
2022-12-08T23:31:46.374Z,99006.02
2022-12-08T23:36:54.432Z,99007.27
2022-12-08T23:42:02.731Z,99013.37
2022-12-08T23:47:11.040Z,99006.77
2022-12-08T23:52:19.823Z,99008.17
2022-12-08T23:57:28.182Z,99014.08
